Aérodrome :
LOGIN :

S'inscrire | Disclaimer

   EN    FR    IT 

 










Légende :    VFR   VFR Marginal   IFR   IFR Intensif   IFR Très Intensif
Visi : 
Plafond : 
>= 8 km
>= 3000ft
5 à 8 km
1000 à 3000 ft
1500m à 5 km
500 à 1000 ft
800 à 1500m
200 à 500 ft
< 800m
< 200 ft
Symboles :   Orages  Brouillard  Fortes neiges  Fortes précipitations  Vent > 20 kt
SIGMETs :   Divers  Orages  Givrage  Turbulence  Onde Orograph.  Cendres Volcan.







- Altitude de l'aérodrome : 614 ft
- Code IATA : CRL


EBCI - Charleroi

DERNIER METAR :
  • 251950Z 34006KT CAVOK 05/M04 Q1011 NOSIG

METARs EXPIRÉS :
  • 251920Z 34005KT 9999 FEW045 06/M04 Q1011 NOSIG
  • 251850Z 34007KT 300V010 9999 FEW045 06/M04 Q1011 NOSIG
  • 251820Z 34008KT 310V010 9999 FEW045 07/M04 Q1011 NOSIG
  • 251750Z 35009KT 320V020 9999 FEW045 07/M04 Q1011 NOSIG
  • 251720Z 35007KT 320V030 9999 FEW030 SCT040 08/M04 Q1011 NOSIG

TAF TAF EBCI
Valide du 25 à 18h jusqu'au 27 à 00h UTC


251710Z 2518/2624 34007KT 9999 FEW030 SCT040
PROB30
TEMPO 2608/2612 4000 SHRA BKN014TCU
TEMPO 2513/2517 4000 SHRA SCT008 BKN014CB
PROB30
TEMPO 2612/2616 2500 TSRAGS
Pas de NOTAMs connus pour ce terrain.



MET'MAP, la Météo Aéronautique d'un coup d'oeil ! - Copyright ORBIFLY Décembre 2007 - Disclaimer

ORBIFLY MET'MAP TEAM :

Programmation & Développement : Alexandra Zaïnal
Conception & Développement : Baudouin d'Aumeries
Co-Programmation & Développement : Marc-Olivier Méhu
Soutien technique & logistique : Manuel Goepfert

Contact : metmap@orbifly.com




SOURCES & CREDITS :

   NOAA